Time;durP1;ratioP1;P1;durP2;ratioP2;P2;SDS_P1;SDS_P2;PMS_P1;PMS_P2;Temp;Humidity;BMP_temperature;BMP_pressure;BME280_temperature;BME280_humidity;BME280_pressure;Samples;Min_cycle;Max_cycle;Signal;HPM_P1;HPM_P2
2021/11/17 02:25:41;;;;;;;48.70;20.75;;;;;;;4.26;100.00;101270.16;4955011;29;20078;-92
2021/11/17 02:28:29;;;;;;;50.13;21.85;;;;;;;4.24;100.00;101272.88;4954922;29;20035;-92
2021/11/17 02:31:20;;;;;;;48.97;21.90;;;;;;;4.28;100.00;101260.25;4946843;28;20054;-93
2021/11/17 02:34:02;;;;;;;47.63;22.10;;;;;;;4.34;100.00;101255.47;4937206;29;20069;-93
2021/11/17 02:37:01;;;;;;;43.38;20.40;;;;;;;4.26;100.00;101260.34;4939086;29;20118;-92
2021/11/17 02:39:30;;;;;;;44.80;21.42;;;;;;;4.24;100.00;101248.06;4943328;29;20425;-92
2021/11/17 02:42:18;;;;;;;44.97;21.27;;;;;;;4.22;100.00;101256.13;4939560;29;20039;-92
2021/11/17 02:44:46;;;;;;;49.90;22.17;;;;;;;4.17;100.00;101250.22;4927196;28;20106;-92
2021/11/17 02:47:20;;;;;;;47.50;21.67;;;;;;;4.09;100.00;101253.25;4954501;29;20063;-92
2021/11/17 02:50:13;;;;;;;45.70;21.92;;;;;;;4.17;100.00;101244.03;4936663;29;20788;-92
2021/11/17 02:53:04;;;;;;;44.42;20.30;;;;;;;4.14;100.00;101237.91;4938863;29;20105;-92
2021/11/17 02:55:36;;;;;;;43.88;20.35;;;;;;;4.19;100.00;101237.66;4915137;29;20472;-92
2021/11/17 02:58:09;;;;;;;50.33;21.80;;;;;;;4.14;100.00;101221.94;4939855;28;20039;-92
2021/11/17 03:00:43;;;;;;;59.88;21.85;;;;;;;4.20;100.00;101211.91;4936745;29;20050;-92
2021/11/17 03:03:21;;;;;;;52.80;22.45;;;;;;;4.27;100.00;101210.63;4937589;29;20038;-93
2021/11/17 03:05:59;;;;;;;46.75;21.55;;;;;;;4.23;100.00;101209.94;4966576;28;20023;-91
2021/11/17 03:08:37;;;;;;;43.83;20.75;;;;;;;4.24;100.00;101211.66;4923932;29;20098;-93
2021/11/17 03:11:25;;;;;;;45.38;21.83;;;;;;;4.24;100.00;101216.97;4920910;29;20039;-92
2021/11/17 03:14:06;;;;;;;49.65;21.58;;;;;;;4.22;100.00;101215.34;4909848;29;20104;-92
2021/11/17 03:16:40;;;;;;;52.13;22.55;;;;;;;4.23;100.00;101217.06;4953643;28;20028;-91
2021/11/17 03:19:44;;;;;;;46.00;20.85;;;;;;;4.20;100.00;101222.56;4920830;29;20038;-92
2021/11/17 03:22:42;;;;;;;51.95;23.15;;;;;;;4.24;100.00;101210.78;4878721;29;20040;-92
2021/11/17 03:25:25;;;;;;;44.70;21.83;;;;;;;4.21;100.00;101216.28;4923704;29;20042;-92
2021/11/17 03:28:06;;;;;;;49.80;22.23;;;;;;;4.23;100.00;101214.41;4941166;29;20392;-92
2021/11/17 03:30:41;;;;;;;48.72;23.40;;;;;;;4.28;100.00;101217.66;4938054;29;20050;-92
2021/11/17 03:33:21;;;;;;;54.28;23.02;;;;;;;4.32;100.00;101206.78;4962947;28;20071;-93
2021/11/17 03:36:32;;;;;;;44.97;20.90;;;;;;;4.26;100.00;101190.28;4950585;29;20127;-92
2021/11/17 03:39:23;;;;;;;53.72;22.95;;;;;;;4.27;100.00;101197.31;4878785;29;20040;-92
2021/11/17 03:42:06;;;;;;;55.13;21.90;;;;;;;4.24;100.00;101208.13;4894267;29;20103;-92
2021/11/17 03:44:35;;;;;;;48.97;22.13;;;;;;;4.25;100.00;101201.84;4924948;29;20062;-93
2021/11/17 03:47:37;;;;;;;51.35;22.98;;;;;;;4.23;100.00;101207.28;4937241;29;20109;-92
2021/11/17 03:50:18;;;;;;;56.90;23.95;;;;;;;4.26;100.00;101215.09;4938289;29;20439;-92
2021/11/17 03:53:17;;;;;;;49.80;23.08;;;;;;;4.24;100.00;101206.31;4936426;29;20067;-92
2021/11/17 03:55:56;;;;;;;44.58;20.90;;;;;;;4.29;100.00;101203.44;4938924;29;20127;-93
2021/11/17 03:58:43;;;;;;;47.33;20.83;;;;;;;4.27;100.00;101203.50;4921284;29;20053;-92
2021/11/17 04:01:28;;;;;;;50.08;22.40;;;;;;;4.27;100.00;101197.31;4947222;29;20105;-92
2021/11/17 04:04:14;;;;;;;53.25;22.02;;;;;;;4.27;100.00;101192.00;4938791;29;20028;-91
2021/11/17 04:07:02;;;;;;;55.53;22.48;;;;;;;4.31;100.00;101193.53;4920933;29;20488;-92
2021/11/17 04:09:46;;;;;;;47.13;21.63;;;;;;;4.35;100.00;101208.41;4920158;29;20402;-92
2021/11/17 04:12:33;;;;;;;49.03;22.27;;;;;;;4.39;100.00;101209.97;4937975;29;20027;-92
2021/11/17 04:15:26;;;;;;;42.17;20.33;;;;;;;4.38;100.00;101206.44;4936803;29;20023;-92
2021/11/17 04:18:18;;;;;;;44.63;20.98;;;;;;;4.33;100.00;101205.81;4935960;29;20035;-92
2021/11/17 04:21:19;;;;;;;48.33;22.40;;;;;;;4.37;100.00;101202.03;4946590;28;20019;-92
2021/11/17 04:23:48;;;;;;;53.00;21.90;;;;;;;4.42;100.00;101209.78;4949901;28;20131;-91
2021/11/17 04:26:26;;;;;;;46.33;21.33;;;;;;;4.47;100.00;101197.09;4952837;29;20067;-92
2021/11/17 04:29:39;;;;;;;47.88;22.10;;;;;;;4.47;100.00;101188.22;4936941;29;20035;-92
2021/11/17 04:32:23;;;;;;;48.28;21.15;;;;;;;4.51;100.00;101182.63;4878014;29;20509;-92
2021/11/17 04:35:05;;;;;;;48.05;21.02;;;;;;;4.51;100.00;101184.44;4959667;29;20070;-92
2021/11/17 04:37:40;;;;;;;;;;;;;;;4.47;100.00;101178.44;4921537;29;20071;-93
2021/11/17 04:40:30;;;;;;;43.63;20.35;;;;;;;4.48;100.00;101182.81;4939664;29;19922;-93
2021/11/17 04:43:05;;;;;;;41.50;19.85;;;;;;;4.48;100.00;101181.97;4941552;29;20089;-93
2021/11/17 04:45:37;;;;;;;45.33;19.88;;;;;;;4.44;100.00;101178.63;4943085;29;20031;-92
2021/11/17 04:48:21;;;;;;;56.15;22.75;;;;;;;4.42;100.00;101180.50;4939473;29;20126;-92
2021/11/17 04:51:02;;;;;;;41.22;20.85;;;;;;;4.43;100.00;101163.56;4944107;29;20085;-93
2021/11/17 04:53:42;;;;;;;49.78;22.55;;;;;;;4.40;100.00;101136.25;4923398;29;20093;-92
2021/11/17 04:56:28;;;;;;;60.20;23.70;;;;;;;4.39;100.00;101132.72;4923360;29;20031;-92
2021/11/17 04:59:02;;;;;;;44.38;20.38;;;;;;;4.39;100.00;101151.38;4938753;29;20143;-92
2021/11/17 05:01:34;;;;;;;55.08;21.23;;;;;;;4.37;100.00;101158.56;4939503;29;20035;-91
2021/11/17 05:04:14;;;;;;;49.40;21.90;;;;;;;4.41;100.00;101154.81;4938823;29;20031;-92
2021/11/17 05:07:10;;;;;;;45.72;21.55;;;;;;;4.42;100.00;101158.34;4926021;29;20039;-92
2021/11/17 05:10:12;;;;;;;54.08;22.50;;;;;;;4.40;100.00;101150.41;4934728;29;20419;-92
2021/11/17 05:12:58;;;;;;;63.88;23.15;;;;;;;4.42;100.00;101145.88;4932036;28;20015;-92
2021/11/17 07:42:23;;;;;;;88.07;34.10;;;;;;;4.59;100.00;101033.91;6117267;23;20067;-91
2021/11/17 09:54:59;;;;;;;121.20;38.95;;;;;;;5.50;100.00;101007.06;3277606;23;20252;-90
2021/11/17 10:09:50;;;;;;;78.85;27.52;;;;;;;5.68;100.00;101021.91;4123814;23;20107;31
2021/11/17 10:25:33;;;;;;;63.03;22.30;;;;;;;6.11;100.00;101020.97;3698451;23;20056;31
2021/11/17 10:28:02;;;;;;;;;;;;;;;6.13;100.00;101021.75;4952248;28;20541;-91
2021/11/17 10:35:45;;;;;;;54.40;21.77;;;;;;;6.27;100.00;101002.97;3467952;23;20331;31
2021/11/17 10:50:09;;;;;;;49.92;20.63;;;;;;;7.11;100.00;100988.38;5044951;23;20058;-91
2021/11/17 11:27:36;;;;;;;57.08;19.85;;;;;;;7.36;100.00;100988.34;3545179;23;21364;-91
2021/11/17 11:33:30;;;;;;;41.53;16.45;;;;;;;7.49;100.00;100996.34;4631005;23;20105;31
2021/11/17 11:59:22;;;;;;;29.92;11.95;;;;;;;8.27;100.00;100984.44;3802907;23;20158;-91
2021/11/17 13:06:34;;;;;;;19.63;4.00;;;;;;;8.85;100.00;101073.91;4976858;28;20529;-91
2021/11/17 13:09:15;;;;;;;17.05;4.70;;;;;;;8.85;100.00;101073.91;5131795;23;20073;-91
2021/11/17 13:12:03;;;;;;;;;;;;;;;-145.71;100.00;60690.53;5164234;23;20179;-92
2021/11/17 13:38:34;;;;;;;14.07;2.95;;;;;;;-145.71;100.00;60690.53;5748976;23;20516;31
2021/11/17 15:11:16;;;;;;;14.63;4.28;;;;;;;-145.71;100.00;60690.53;3974265;24;20036;31
2021/11/17 15:44:50;;;;;;;27.08;4.35;;;;;;;-145.71;100.00;60690.53;2054064;24;20455;31
2021/11/17 15:48:14;;;;;;;31.55;5.75;;;;;;;-145.71;100.00;60690.53;4819622;29;20129;-91
2021/11/17 15:51:41;;;;;;;20.88;3.92;;;;;;;-145.71;100.00;60690.53;4823542;29;20040;-89
2021/11/17 15:55:08;;;;;;;24.35;3.88;;;;;;;-145.71;100.00;60690.53;4858902;24;20153;-91
2021/11/17 15:58:44;;;;;;;18.80;3.90;;;;;;;-145.71;100.00;60690.53;4852172;29;20053;-91
2021/11/17 16:02:23;;;;;;;19.52;4.05;;;;;;;-145.71;100.00;60690.53;4918597;24;20076;-91
2021/11/17 16:06:03;;;;;;;20.42;5.07;;;;;;;-145.71;100.00;60690.53;4621158;23;20019;31
2021/11/17 16:09:29;;;;;;;21.92;3.95;;;;;;;-145.71;100.00;60690.53;4817567;29;20396;-90
2021/11/17 16:12:56;;;;;;;25.73;5.45;;;;;;;-145.71;100.00;60690.53;4821867;29;20155;-91
2021/11/17 16:16:25;;;;;;;18.38;3.40;;;;;;;-145.71;100.00;60690.53;4822959;29;20034;-90
2021/11/17 16:19:51;;;;;;;17.30;3.45;;;;;;;-145.71;100.00;60690.53;4823333;29;20042;-91
2021/11/17 16:26:51;;;;;;;18.92;4.13;;;;;;;-145.71;100.00;60690.53;4858839;29;20044;-91
2021/11/17 16:30:19;;;;;;;20.42;2.83;;;;;;;-145.71;100.00;60690.53;4839761;29;20052;-90
2021/11/17 16:33:44;;;;;;;15.18;3.75;;;;;;;-145.71;100.00;60690.53;4858058;29;20086;-90
2021/11/17 16:37:08;;;;;;;20.90;4.43;;;;;;;-145.71;100.00;60690.53;4860245;29;20037;-90
2021/11/17 16:40:35;;;;;;;15.00;3.90;;;;;;;-145.71;100.00;60690.53;4860340;29;20065;-90
2021/11/17 16:44:03;;;;;;;14.93;4.15;;;;;;;-145.71;100.00;60690.53;4861962;29;20177;-89
2021/11/17 16:47:27;;;;;;;7.47;3.03;;;;;;;-145.71;100.00;60690.53;4860904;29;20082;-90
2021/11/17 16:50:51;;;;;;;12.18;3.92;;;;;;;-145.71;100.00;60690.53;4863261;29;20432;-89
2021/11/17 16:54:16;;;;;;;23.58;7.03;;;;;;;-145.71;100.00;60690.53;4859822;29;20072;-89
2021/11/17 16:57:41;;;;;;;22.85;7.40;;;;;;;-145.71;100.00;60690.53;4861339;29;20053;-89
2021/11/17 17:01:07;;;;;;;24.83;7.57;;;;;;;-145.71;100.00;60690.53;4863119;29;20771;-89
2021/11/17 17:04:32;;;;;;;25.55;7.25;;;;;;;-145.71;100.00;60690.53;4875684;29;20034;-89
2021/11/17 17:07:56;;;;;;;19.38;5.10;;;;;;;-145.71;100.00;60690.53;4863595;29;20034;-89
2021/11/17 17:11:22;;;;;;;21.45;4.85;;;;;;;-145.71;100.00;60690.53;4860393;29;20495;-87
2021/11/17 17:14:47;;;;;;;14.38;4.22;;;;;;;-145.71;100.00;60690.53;4861666;29;20104;-87
2021/11/17 17:18:15;;;;;;;17.83;4.40;;;;;;;-145.71;100.00;60690.53;4933070;24;20427;-90
2021/11/17 17:21:40;;;;;;;12.88;3.70;;;;;;;-145.71;100.00;60690.53;4824131;29;20034;-90
2021/11/17 17:25:07;;;;;;;15.27;3.47;;;;;;;-145.71;100.00;60690.53;4808421;29;20130;-90
2021/11/17 17:28:32;;;;;;;15.60;2.75;;;;;;;-145.71;100.00;60690.53;4808925;29;20079;-90
2021/11/17 17:31:59;;;;;;;18.73;4.15;;;;;;;-145.71;100.00;60690.53;4810486;29;20039;-90
2021/11/17 17:35:24;;;;;;;27.58;7.25;;;;;;;-145.71;100.00;60690.53;4808256;29;20039;-90
2021/11/17 17:38:50;;;;;;;14.93;3.35;;;;;;;-145.71;100.00;60690.53;4807008;29;20038;-91
2021/11/17 17:42:16;;;;;;;13.75;2.88;;;;;;;-145.71;100.00;60690.53;4806588;29;20440;-90
2021/11/17 17:45:41;;;;;;;10.27;2.67;;;;;;;-145.71;100.00;60690.53;4830108;29;20037;-90
2021/11/17 17:49:06;;;;;;;11.65;3.00;;;;;;;-145.71;100.00;60690.53;4824934;29;20094;-90
2021/11/17 17:52:30;;;;;;;15.35;3.30;;;;;;;-145.71;100.00;60690.53;4824933;29;20033;-90
2021/11/17 17:55:55;;;;;;;11.32;2.83;;;;;;;-145.71;100.00;60690.53;4807694;29;20030;-90
2021/11/17 17:59:20;;;;;;;13.82;3.25;;;;;;;-145.71;100.00;60690.53;4841523;29;20484;-90
2021/11/17 18:02:44;;;;;;;12.40;3.15;;;;;;;-145.71;100.00;60690.53;4824793;29;20042;-91
2021/11/17 18:06:11;;;;;;;16.48;3.35;;;;;;;-145.71;100.00;60690.53;4823620;29;20041;-90
2021/11/17 18:09:36;;;;;;;19.55;4.32;;;;;;;-145.71;100.00;60690.53;4825222;29;20428;-91
2021/11/17 18:16:55;;;;;;;29.75;3.58;;;;;;;-145.71;100.00;60690.53;2946944;23;20028;-90
2021/11/17 18:20:19;;;;;;;13.30;3.50;;;;;;;-145.71;100.00;60690.53;4803621;29;20427;-90
2021/11/17 18:23:43;;;;;;;18.63;4.03;;;;;;;-145.71;100.00;60690.53;4805296;29;20404;-90
2021/11/17 18:27:15;;;;;;;13.18;3.33;;;;;;;-145.71;100.00;60690.53;4802489;29;20145;-91
2021/11/17 18:30:41;;;;;;;14.47;3.23;;;;;;;-145.71;100.00;60690.53;4798655;29;20045;-91
2021/11/17 18:34:13;;;;;;;21.85;7.13;;;;;;;-145.71;100.00;60690.53;4825767;29;20284;-91
2021/11/17 18:37:41;;;;;;;22.27;5.88;;;;;;;-145.71;100.00;60690.53;4814137;29;20054;-90
2021/11/17 18:41:09;;;;;;;11.15;3.28;;;;;;;-145.71;100.00;60690.53;4806034;29;20038;-90
2021/11/17 18:44:34;;;;;;;12.30;3.15;;;;;;;-145.71;100.00;60690.53;4806290;29;20038;-90
2021/11/17 18:48:03;;;;;;;14.14;3.32;;;;;;;-145.71;100.00;60690.53;4816717;24;1060441;-88
2021/11/17 18:51:29;;;;;;;12.95;3.65;;;;;;;-145.71;100.00;60690.53;4859783;29;20041;-91
2021/11/17 18:54:56;;;;;;;10.48;2.72;;;;;;;-145.71;100.00;60690.53;4860317;29;20064;-90
2021/11/17 18:58:23;;;;;;;18.65;3.30;;;;;;;-145.71;100.00;60690.53;4858459;29;20596;-91
2021/11/17 19:05:31;;;;;;;15.80;3.70;;;;;;;-145.71;100.00;60690.53;4921689;23;20155;-91
2021/11/17 19:08:59;;;;;;;12.80;3.33;;;;;;;-145.71;100.00;60690.53;4854603;29;20128;-91
2021/11/17 19:12:26;;;;;;;11.00;2.55;;;;;;;-145.71;100.00;60690.53;4915369;24;20392;-89
2021/11/17 19:15:50;;;;;;;20.92;3.95;;;;;;;-145.71;100.00;60690.53;4853653;29;20030;-90
2021/11/17 19:19:15;;;;;;;15.65;3.60;;;;;;;-145.71;100.00;60690.53;4821506;29;20034;-89
2021/11/17 19:22:47;;;;;;;18.48;3.55;;;;;;;-145.71;100.00;60690.53;4821786;29;20755;-90
2021/11/17 19:33:39;;;;;;;15.32;2.70;;;;;;;-145.71;100.00;60690.53;3362235;23;22191;-91
2021/11/17 19:40:53;;;;;;;13.90;2.95;;;;;;;-145.71;100.00;60690.53;4289400;23;20186;-91
2021/11/17 19:47:46;;;;;;;15.55;3.58;;;;;;;-145.71;100.00;60690.53;2850509;24;20687;-89
2021/11/17 19:51:10;;;;;;;19.80;4.13;;;;;;;-145.71;100.00;60690.53;4875863;29;20055;-91
2021/11/17 19:54:37;;;;;;;19.58;4.07;;;;;;;-145.71;100.00;60690.53;4857873;29;20030;-91
2021/11/17 19:58:03;;;;;;;18.65;3.85;;;;;;;-145.71;100.00;60690.53;4841794;29;20037;-91
2021/11/17 20:01:28;;;;;;;18.88;4.20;;;;;;;-145.71;100.00;60690.53;4841599;29;20033;-90
2021/11/17 20:04:52;;;;;;;17.83;4.32;;;;;;;-145.71;100.00;60690.53;4841944;29;20037;-90
2021/11/17 20:08:18;;;;;;;19.95;5.15;;;;;;;-145.71;100.00;60690.53;4859181;29;20817;-90
2021/11/17 20:11:41;;;;;;;18.27;3.70;;;;;;;-145.71;100.00;60690.53;4845738;29;20044;-90
2021/11/17 20:15:08;;;;;;;17.15;3.88;;;;;;;-145.71;100.00;60690.53;4862496;29;20038;-90
2021/11/17 20:18:32;;;;;;;35.67;5.07;;;;;;;-145.71;100.00;60690.53;4844896;29;20053;-90
2021/11/17 20:21:57;;;;;;;20.77;4.13;;;;;;;-145.71;100.00;60690.53;4862145;29;20037;-90
2021/11/17 20:25:23;;;;;;;19.40;3.47;;;;;;;-145.71;100.00;60690.53;4862536;29;20098;-91
2021/11/17 20:28:47;;;;;;;18.75;4.68;;;;;;;-145.71;100.00;60690.53;4845835;29;20068;-90
2021/11/17 20:32:11;;;;;;;20.65;5.30;;;;;;;-145.71;100.00;60690.53;4846510;29;20037;-90
2021/11/17 20:35:35;;;;;;;20.20;4.38;;;;;;;-145.71;100.00;60690.53;4870597;29;20077;-90
2021/11/17 20:39:01;;;;;;;14.85;3.78;;;;;;;-145.71;100.00;60690.53;4845383;29;20034;-90
2021/11/17 20:42:26;;;;;;;14.20;4.38;;;;;;;-145.71;100.00;60690.53;4862350;29;20033;-90
2021/11/17 20:45:50;;;;;;;13.80;4.20;;;;;;;-145.71;100.00;60690.53;4845242;29;20128;-90
2021/11/17 20:49:15;;;;;;;22.83;5.57;;;;;;;-145.71;100.00;60690.53;4861728;29;20110;-91
2021/11/17 20:52:39;;;;;;;13.60;4.10;;;;;;;-145.71;100.00;60690.53;4845135;29;20045;-90
2021/11/17 20:56:07;;;;;;;17.75;3.72;;;;;;;-145.71;100.00;60690.53;4862043;29;20077;-91
2021/11/17 20:59:31;;;;;;;15.23;3.13;;;;;;;-145.71;100.00;60690.53;4845489;29;20029;-90
2021/11/17 21:02:58;;;;;;;13.80;3.35;;;;;;;-145.71;100.00;60690.53;4844640;29;20040;-91
2021/11/17 21:06:23;;;;;;;30.92;4.20;;;;;;;-145.71;100.00;60690.53;4865753;29;20029;-91
2021/11/17 21:09:46;;;;;;;22.00;4.05;;;;;;;-145.71;100.00;60690.53;4845215;29;20040;-92
2021/11/17 21:13:10;;;;;;;25.85;3.67;;;;;;;-145.71;100.00;60690.53;4845134;29;20144;-91
2021/11/17 21:16:35;;;;;;;14.20;3.13;;;;;;;-145.71;100.00;60690.53;4861708;29;20037;-91
2021/11/17 21:19:59;;;;;;;14.00;2.83;;;;;;;-145.71;100.00;60690.53;4860813;29;20073;-92
2021/11/17 21:23:24;;;;;;;15.90;3.03;;;;;;;-145.71;100.00;60690.53;4846284;29;20038;-91
2021/11/17 21:26:51;;;;;;;18.15;2.70;;;;;;;-145.71;100.00;60690.53;4844481;29;20029;-91
2021/11/17 21:30:17;;;;;;;23.23;4.68;;;;;;;-145.71;100.00;60690.53;4852642;29;20042;-91
2021/11/17 21:33:42;;;;;;;18.10;3.75;;;;;;;-145.71;100.00;60690.53;4844967;29;20052;-90
2021/11/17 21:37:07;;;;;;;19.10;3.20;;;;;;;-145.71;100.00;60690.53;4861014;29;20094;-91
2021/11/17 21:40:32;;;;;;;21.67;3.22;;;;;;;-145.71;100.00;60690.53;4861071;29;20048;-90
2021/11/17 21:43:57;;;;;;;22.45;3.20;;;;;;;-145.71;100.00;60690.53;4861230;29;20029;-90
2021/11/17 21:47:21;;;;;;;17.50;3.72;;;;;;;-145.71;100.00;60690.53;4844332;29;20045;-90
2021/11/17 21:50:46;;;;;;;20.23;3.72;;;;;;;-145.71;100.00;60690.53;4860554;29;20033;-91
2021/11/17 21:54:10;;;;;;;14.43;4.18;;;;;;;-145.71;100.00;60690.53;4860763;29;20029;-91
2021/11/17 21:57:35;;;;;;;18.88;4.97;;;;;;;-145.71;100.00;60690.53;4866851;29;20104;-91
2021/11/17 22:00:59;;;;;;;28.85;4.00;;;;;;;-145.71;100.00;60690.53;4843754;29;20037;-91
2021/11/17 22:04:24;;;;;;;23.77;5.43;;;;;;;-145.71;100.00;60690.53;4844417;29;20515;-91
2021/11/17 22:07:49;;;;;;;15.35;3.38;;;;;;;-145.71;100.00;60690.53;4861098;29;20138;-91
2021/11/17 22:11:13;;;;;;;20.70;3.55;;;;;;;-145.71;100.00;60690.53;4843710;29;20042;-90
2021/11/17 22:14:38;;;;;;;22.67;4.40;;;;;;;-145.71;100.00;60690.53;4860554;29;20085;-90
2021/11/17 22:18:03;;;;;;;25.17;3.33;;;;;;;-145.71;100.00;60690.53;4862653;29;20040;-91
2021/11/17 22:21:27;;;;;;;23.35;3.05;;;;;;;-145.71;100.00;60690.53;4844331;29;20029;-91
2021/11/17 22:24:51;;;;;;;23.52;3.00;;;;;;;-145.71;100.00;60690.53;4845659;29;20045;-91
2021/11/17 22:28:15;;;;;;;22.08;4.28;;;;;;;-145.71;100.00;60690.53;4843201;29;20055;-91
2021/11/17 22:31:39;;;;;;;18.45;3.42;;;;;;;-145.71;100.00;60690.53;4843224;29;20032;-90
2021/11/17 22:35:03;;;;;;;15.00;2.72;;;;;;;-145.71;100.00;60690.53;4859906;29;20160;-91
2021/11/17 22:38:27;;;;;;;20.13;3.15;;;;;;;-145.71;100.00;60690.53;4859891;29;20029;-92
2021/11/17 22:41:51;;;;;;;16.38;2.70;;;;;;;-145.71;100.00;60690.53;4844077;29;20029;-91
2021/11/17 22:45:16;;;;;;;21.35;3.45;;;;;;;-145.71;100.00;60690.53;4860153;29;20041;-91
2021/11/17 22:48:41;;;;;;;13.27;3.35;;;;;;;-145.71;100.00;60690.53;4846528;29;20037;-91
2021/11/17 22:52:07;;;;;;;15.48;2.50;;;;;;;-145.71;100.00;60690.53;4859668;29;20033;-91
2021/11/17 22:55:32;;;;;;;13.30;2.80;;;;;;;-145.71;100.00;60690.53;4858013;29;20040;-91
2021/11/17 22:58:56;;;;;;;27.77;3.63;;;;;;;-145.71;100.00;60690.53;4842863;29;20036;-91
2021/11/17 23:02:26;;;;;;;16.30;3.97;;;;;;;-145.71;100.00;60690.53;4843264;29;20029;-92
2021/11/17 23:05:50;;;;;;;15.00;2.70;;;;;;;-145.71;100.00;60690.53;4845417;29;20044;-91
2021/11/17 23:09:14;;;;;;;23.92;3.38;;;;;;;-145.71;100.00;60690.53;4845940;29;20483;-91
2021/11/17 23:12:38;;;;;;;16.45;3.00;;;;;;;-145.71;100.00;60690.53;4845400;29;20044;-91
2021/11/17 23:16:04;;;;;;;17.08;2.83;;;;;;;-145.71;100.00;60690.53;4862036;29;20402;-91
2021/11/17 23:19:28;;;;;;;15.65;2.63;;;;;;;-145.71;100.00;60690.53;4845737;29;20089;-91
2021/11/17 23:22:55;;;;;;;16.35;2.95;;;;;;;-145.71;100.00;60690.53;4842719;29;20060;-91
2021/11/17 23:26:21;;;;;;;17.23;2.83;;;;;;;-145.71;100.00;60690.53;4842500;29;20041;-91
2021/11/17 23:29:46;;;;;;;22.00;3.67;;;;;;;-145.71;100.00;60690.53;4858040;29;20115;-91
2021/11/17 23:33:11;;;;;;;25.95;3.28;;;;;;;-145.71;100.00;60690.53;4851500;29;20417;-91
2021/11/17 23:36:38;;;;;;;25.55;4.00;;;;;;;-145.71;100.00;60690.53;4865847;29;20042;-89
2021/11/17 23:40:10;;;;;;;12.65;2.72;;;;;;;-145.71;100.00;60690.53;4861670;29;20530;-90
2021/11/17 23:43:33;;;;;;;36.40;4.22;;;;;;;-145.71;100.00;60690.53;4844399;29;20040;-90
2021/11/17 23:46:59;;;;;;;16.65;2.88;;;;;;;-145.71;100.00;60690.53;4861640;29;20037;-90
2021/11/17 23:50:26;;;;;;;20.90;3.25;;;;;;;-145.71;100.00;60690.53;4860248;29;20049;-90
2021/11/17 23:53:51;;;;;;;22.42;3.25;;;;;;;-145.71;100.00;60690.53;4844885;29;20033;-90
2021/11/17 23:57:16;;;;;;;19.38;3.15;;;;;;;-145.71;100.00;60690.53;4861157;29;20037;-90
